Time;durP1;ratioP1;P1;durP2;ratioP2;P2;SDS_P1;SDS_P2;PMS_P1;PMS_P2;Temp;Humidity;BMP_temperature;BMP_pressure;BME280_temperature;BME280_humidity;BME280_pressure;Samples;Min_cycle;Max_cycle;Signal;HPM_P1;HPM_P2
2022/06/01 00:01:18;;;;;;;20.73;18.60;;;11.30;99.90;;;;;;5036506;28;20103;-70
2022/06/01 00:03:44;;;;;;;23.30;20.80;;;11.40;99.90;;;;;;5036761;28;20053;-69
2022/06/01 00:06:11;;;;;;;22.02;19.73;;;11.40;99.90;;;;;;5042797;28;20041;-70
2022/06/01 00:08:37;;;;;;;21.40;19.20;;;11.30;99.90;;;;;;5056305;28;20041;-69
2022/06/01 00:11:03;;;;;;;20.70;18.42;;;11.40;99.90;;;;;;5055930;28;20454;-69
2022/06/01 00:13:29;;;;;;;21.60;19.30;;;11.40;99.90;;;;;;5055588;28;20044;-69
2022/06/01 00:15:55;;;;;;;21.08;18.95;;;11.40;99.90;;;;;;5056314;28;20375;-69
2022/06/01 00:18:22;;;;;;;21.30;19.08;;;11.30;99.90;;;;;;5056227;28;20384;-69
2022/06/01 00:20:48;;;;;;;21.58;19.55;;;11.40;99.90;;;;;;5056413;28;20053;-69
2022/06/01 00:23:14;;;;;;;23.05;19.77;;;11.40;99.90;;;;;;5056197;28;20067;-69
2022/06/01 00:25:41;;;;;;;27.35;21.42;;;11.40;99.90;;;;;;5055530;28;20105;-69
2022/06/01 00:28:07;;;;;;;23.35;19.55;;;11.40;99.90;;;;;;5055093;28;20056;-69
2022/06/01 00:30:33;;;;;;;23.75;21.25;;;11.30;99.90;;;;;;5055898;28;20052;-69
2022/06/01 00:32:58;;;;;;;22.63;20.20;;;11.40;99.90;;;;;;5055839;28;20048;-69
2022/06/01 00:35:25;;;;;;;21.83;18.73;;;11.40;99.90;;;;;;5055875;28;20171;-69
2022/06/01 00:37:51;;;;;;;22.23;19.88;;;11.40;99.90;;;;;;5073533;28;20045;-69
2022/06/01 00:40:20;;;;;;;23.83;21.42;;;11.50;99.90;;;;;;5058073;28;20052;-69
2022/06/01 00:42:47;;;;;;;20.80;18.58;;;11.50;99.90;;;;;;5075711;28;20055;-69
2022/06/01 00:45:16;;;;;;;27.52;21.35;;;11.50;99.90;;;;;;5075372;28;20344;-69
2022/06/01 00:47:41;;;;;;;22.20;19.92;;;11.50;99.90;;;;;;5075797;28;20362;-69
2022/06/01 00:50:21;;;;;;;23.58;21.08;;;11.50;99.90;;;;;;5075718;28;20055;-69
2022/06/01 00:53:12;;;;;;;23.55;20.92;;;11.50;99.90;;;;;;5073254;28;20439;-69
2022/06/01 00:55:43;;;;;;;23.60;20.90;;;11.40;99.90;;;;;;5060880;28;20131;-68
2022/06/01 00:58:14;;;;;;;22.85;20.45;;;11.50;99.90;;;;;;5075169;28;20458;-69
2022/06/01 01:00:41;;;;;;;22.52;20.15;;;11.50;99.90;;;;;;5075614;28;20055;-69
2022/06/01 01:03:10;;;;;;;22.60;20.40;;;11.40;99.90;;;;;;5075515;28;20366;-69
2022/06/01 01:05:39;;;;;;;22.00;19.45;;;11.40;99.90;;;;;;5074252;28;20080;-69
2022/06/01 01:08:05;;;;;;;24.30;21.65;;;11.50;99.90;;;;;;5075253;28;20036;-69
2022/06/01 01:10:31;;;;;;;23.55;21.05;;;11.30;99.90;;;;;;5075003;28;20473;-69
2022/06/01 01:12:59;;;;;;;23.52;21.02;;;11.40;99.90;;;;;;5075304;28;20062;-69
2022/06/01 01:15:37;;;;;;;24.90;22.33;;;11.30;99.90;;;;;;5075123;28;20068;-69
2022/06/01 01:18:13;;;;;;;23.08;20.58;;;11.30;99.90;;;;;;5074666;28;20072;-69
2022/06/01 01:21:24;;;;;;;24.38;21.83;;;11.40;99.90;;;;;;5034958;28;20037;-69
2022/06/01 01:24:07;;;;;;;24.90;21.40;;;11.30;99.90;;;;;;5035121;28;20041;-69
2022/06/01 01:26:34;;;;;;;25.65;22.88;;;11.40;99.90;;;;;;5035027;28;20121;-69
2022/06/01 01:29:00;;;;;;;23.40;20.95;;;11.40;99.90;;;;;;5034709;28;20478;-69
2022/06/01 01:31:26;;;;;;;22.92;20.58;;;11.40;99.90;;;;;;5035152;28;20046;-69
2022/06/01 01:33:54;;;;;;;22.42;20.17;;;11.40;99.90;;;;;;5043182;28;20116;-69
2022/06/01 01:36:25;;;;;;;24.08;21.58;;;11.40;99.90;;;;;;5054223;28;20045;-69
2022/06/01 01:39:01;;;;;;;25.08;22.55;;;11.30;99.90;;;;;;5054896;28;20080;-69
2022/06/01 01:41:41;;;;;;;23.63;21.33;;;11.30;99.90;;;;;;5054870;28;20060;-70
2022/06/01 01:44:13;;;;;;;24.98;22.38;;;11.30;99.90;;;;;;5054744;28;20094;-69
2022/06/01 01:46:39;;;;;;;25.55;23.05;;;11.30;99.90;;;;;;5053747;28;20044;-69
2022/06/01 01:49:06;;;;;;;25.58;22.98;;;11.30;99.90;;;;;;5054798;28;20049;-69
2022/06/01 01:51:33;;;;;;;23.33;20.95;;;11.30;99.90;;;;;;5054549;28;20059;-69
2022/06/01 01:53:59;;;;;;;23.52;21.00;;;11.20;99.90;;;;;;5054488;28;20052;-70
2022/06/01 01:57:02;;;;;;;24.40;21.30;;;11.20;99.90;;;;;;5054713;28;20048;-69
2022/06/01 01:59:42;;;;;;;24.73;22.13;;;11.20;99.90;;;;;;5054763;28;20124;-69
2022/06/01 02:02:23;;;;;;;24.95;22.30;;;11.10;99.90;;;;;;5053995;28;20340;-69
2022/06/01 02:07:55;;;;;;;25.63;22.92;;;11.00;99.90;;;;;;5054807;28;20430;-69
2022/06/01 02:13:06;;;;;;;24.73;21.67;;;10.90;99.90;;;;;;5058569;28;20467;-69
2022/06/01 02:15:38;;;;;;;25.98;21.67;;;10.90;99.90;;;;;;5057907;28;20368;-70
2022/06/01 02:18:09;;;;;;;25.13;22.55;;;10.80;99.90;;;;;;5058501;28;20091;-69
2022/06/01 02:20:42;;;;;;;24.48;21.98;;;10.80;99.90;;;;;;5058104;28;20037;-69
2022/06/01 02:23:13;;;;;;;25.88;23.33;;;10.70;99.90;;;;;;5058297;28;20048;-68
2022/06/01 02:25:41;;;;;;;24.38;21.90;;;10.60;99.90;;;;;;5058442;28;20098;-69
2022/06/01 02:28:09;;;;;;;27.70;24.70;;;10.60;99.90;;;;;;5058273;28;20493;-69
2022/06/01 02:30:39;;;;;;;30.35;25.80;;;10.60;99.90;;;;;;5057695;28;20045;-69
2022/06/01 02:33:09;;;;;;;28.13;23.17;;;10.60;99.90;;;;;;5061224;28;20094;-69
2022/06/01 02:35:39;;;;;;;26.45;23.40;;;10.60;99.90;;;;;;5078102;28;20044;-70
2022/06/01 02:38:10;;;;;;;28.80;24.48;;;10.60;99.90;;;;;;5078173;28;20047;-69
2022/06/01 02:40:38;;;;;;;26.60;23.80;;;10.60;99.90;;;;;;5078148;28;20033;-69
2022/06/01 02:43:03;;;;;;;24.65;22.08;;;10.60;99.90;;;;;;5060686;28;20056;-70
2022/06/01 02:45:29;;;;;;;27.05;23.95;;;10.70;99.90;;;;;;5075386;28;20120;-69
2022/06/01 02:47:59;;;;;;;25.73;22.92;;;10.70;99.90;;;;;;5078246;28;20040;-69
2022/06/01 02:50:29;;;;;;;26.10;23.50;;;10.70;99.90;;;;;;5078012;28;20048;-70
2022/06/01 02:52:54;;;;;;;28.25;23.42;;;10.70;99.90;;;;;;5077797;28;20102;-69
2022/06/01 02:55:22;;;;;;;27.27;24.58;;;10.70;99.90;;;;;;5078003;28;20129;-69
2022/06/01 02:57:50;;;;;;;27.13;24.33;;;10.70;99.90;;;;;;5075481;28;20040;-69
2022/06/01 03:00:19;;;;;;;25.75;23.13;;;10.80;99.90;;;;;;5077603;28;20466;-69
2022/06/01 03:02:46;;;;;;;26.40;23.80;;;10.80;99.90;;;;;;5077668;28;20055;-69
2022/06/01 03:05:13;;;;;;;28.35;25.45;;;10.80;99.90;;;;;;5066740;28;20041;-69
2022/06/01 03:07:40;;;;;;;28.63;23.90;;;10.80;99.90;;;;;;5057560;28;20045;-70
2022/06/01 03:10:06;;;;;;;24.67;22.10;;;10.90;99.90;;;;;;5057578;28;20204;-69
2022/06/01 03:12:32;;;;;;;27.52;24.75;;;10.90;99.90;;;;;;5057239;28;20059;-70
2022/06/01 03:14:57;;;;;;;26.30;23.50;;;10.90;99.90;;;;;;5057360;28;20037;-69
2022/06/01 03:17:23;;;;;;;27.23;24.45;;;10.90;99.90;;;;;;5057410;28;20115;-69
2022/06/01 03:19:48;;;;;;;27.20;24.50;;;10.90;99.90;;;;;;5055952;28;20051;-69
2022/06/01 03:22:14;;;;;;;25.95;23.35;;;10.90;99.90;;;;;;5044752;28;20048;-70
2022/06/01 03:24:40;;;;;;;26.33;23.15;;;10.90;99.90;;;;;;5037480;28;20466;-69
2022/06/01 03:27:07;;;;;;;26.67;23.88;;;10.90;99.90;;;;;;5037260;28;20041;-70
2022/06/01 03:29:33;;;;;;;23.38;21.08;;;11.00;99.90;;;;;;5036952;28;20454;-69
2022/06/01 03:31:59;;;;;;;27.63;24.05;;;11.00;99.90;;;;;;5037436;28;20089;-70
2022/06/01 03:34:28;;;;;;;27.00;24.23;;;11.00;99.90;;;;;;5059272;28;20489;-70
2022/06/01 03:36:54;;;;;;;27.08;24.10;;;11.00;99.90;;;;;;5077027;28;20059;-69
2022/06/01 03:39:20;;;;;;;28.75;25.80;;;11.00;99.90;;;;;;5076913;28;20040;-69
2022/06/01 03:41:46;;;;;;;26.73;23.90;;;11.00;99.90;;;;;;5076707;28;20059;-69
2022/06/01 03:47:10;;;;;;;24.70;22.08;;;11.10;99.90;;;;;;5076708;28;20041;-69
2022/06/01 03:49:38;;;;;;;26.98;24.17;;;11.10;99.90;;;;;;5074740;28;20055;-69
2022/06/01 03:52:05;;;;;;;29.40;26.30;;;11.20;99.90;;;;;;5076965;28;20052;-69
2022/06/01 03:54:30;;;;;;;28.48;25.67;;;11.20;99.90;;;;;;5076506;28;20048;-69
2022/06/01 03:56:56;;;;;;;27.98;25.25;;;11.20;99.90;;;;;;5076806;28;20075;-70
2022/06/01 03:59:22;;;;;;;29.75;26.65;;;11.20;99.90;;;;;;5076596;28;20407;-69
2022/06/01 04:01:48;;;;;;;30.85;27.60;;;11.20;99.90;;;;;;5076467;28;20051;-70
2022/06/01 04:04:13;;;;;;;26.83;23.58;;;11.20;99.90;;;;;;5075803;28;20037;-69
2022/06/01 04:06:39;;;;;;;27.88;24.95;;;11.40;99.90;;;;;;5076680;28;20434;-70
2022/06/01 04:09:05;;;;;;;28.20;25.38;;;11.30;99.90;;;;;;5076137;28;20053;-69
2022/06/01 04:11:30;;;;;;;28.63;25.58;;;11.30;99.90;;;;;;5076618;28;20045;-70
2022/06/01 04:13:56;;;;;;;29.38;26.38;;;11.30;99.90;;;;;;5076350;28;20040;-69
2022/06/01 04:16:22;;;;;;;27.90;25.10;;;11.10;99.90;;;;;;5075942;28;20048;-69
2022/06/01 04:18:48;;;;;;;33.38;28.25;;;11.10;99.90;;;;;;5062600;28;20049;-68
2022/06/01 04:21:18;;;;;;;28.25;25.27;;;11.10;99.90;;;;;;5072992;28;20086;-69
2022/06/01 04:23:44;;;;;;;30.90;27.00;;;11.00;99.90;;;;;;5075488;28;20106;-69
2022/06/01 04:26:10;;;;;;;29.05;25.85;;;11.00;99.90;;;;;;5076117;28;20049;-69
2022/06/01 04:28:35;;;;;;;32.10;27.50;;;11.10;99.90;;;;;;5075995;28;20055;-69
2022/06/01 04:31:01;;;;;;;36.58;28.15;;;11.00;99.90;;;;;;5075242;28;20405;-68
2022/06/01 04:33:27;;;;;;;29.75;26.42;;;11.00;99.90;;;;;;5065581;28;20075;-69
2022/06/01 04:35:53;;;;;;;28.35;25.13;;;11.00;99.90;;;;;;5055949;28;20041;-69
2022/06/01 04:38:19;;;;;;;28.95;25.52;;;11.00;99.90;;;;;;5055863;28;20049;-69
2022/06/01 04:40:49;;;;;;;31.02;24.63;;;10.90;99.90;;;;;;5055733;28;20037;-69
2022/06/01 04:43:18;;;;;;;29.45;24.60;;;10.90;99.90;;;;;;5055747;28;20049;-69
2022/06/01 04:45:43;;;;;;;27.05;23.98;;;10.90;99.90;;;;;;5059918;28;20460;-69
2022/06/01 04:48:11;;;;;;;26.92;23.60;;;10.90;99.90;;;;;;5075470;28;20135;-70
2022/06/01 04:50:42;;;;;;;27.05;23.27;;;10.80;99.90;;;;;;5075387;28;20132;-69
2022/06/01 04:53:09;;;;;;;26.55;22.95;;;10.90;99.90;;;;;;5075281;28;20048;-69
2022/06/01 04:55:35;;;;;;;23.80;21.30;;;10.90;99.90;;;;;;5075438;28;20102;-70
2022/06/01 04:58:00;;;;;;;21.60;18.50;;;10.80;99.90;;;;;;5075506;28;20048;-69
2022/06/01 05:00:26;;;;;;;22.63;18.48;;;10.80;99.90;;;;;;5068493;28;20355;-69
2022/06/01 05:02:51;;;;;;;21.45;19.25;;;10.70;99.90;;;;;;5059957;28;20097;-70
2022/06/01 05:05:17;;;;;;;19.52;17.63;;;10.80;99.90;;;;;;5075263;28;20049;-69
2022/06/01 05:07:43;;;;;;;12.45;11.15;;;10.80;99.90;;;;;;5075148;28;20072;-69
2022/06/01 05:10:08;;;;;;;11.02;9.68;;;10.60;99.90;;;;;;5066741;28;20097;-69
2022/06/01 05:12:34;;;;;;;9.43;8.40;;;10.70;99.90;;;;;;5072213;28;20040;-70
2022/06/01 05:15:00;;;;;;;11.73;9.30;;;10.60;99.90;;;;;;5074972;28;20052;-68
2022/06/01 05:17:25;;;;;;;9.60;8.70;;;10.60;99.90;;;;;;5074312;28;20033;-69
2022/06/01 05:19:51;;;;;;;8.98;8.18;;;10.60;99.90;;;;;;5074871;28;20198;-69
2022/06/01 05:22:17;;;;;;;11.13;8.48;;;10.70;99.90;;;;;;5075261;28;20505;-69
2022/06/01 05:24:42;;;;;;;9.23;8.32;;;10.60;99.90;;;;;;5075187;28;20051;-70
2022/06/01 05:27:08;;;;;;;9.30;7.95;;;10.60;99.90;;;;;;5074916;28;20048;-73
2022/06/01 05:29:35;;;;;;;10.07;8.98;;;10.70;99.90;;;;;;5075081;28;20040;-74
2022/06/01 05:32:01;;;;;;;8.77;7.95;;;10.70;99.90;;;;;;5051652;28;20460;-72
2022/06/01 05:34:26;;;;;;;10.15;8.75;;;10.80;99.90;;;;;;5036668;28;20132;-72
2022/06/01 05:36:52;;;;;;;9.15;8.25;;;10.80;99.90;;;;;;5054388;28;20041;-71
2022/06/01 05:39:18;;;;;;;9.13;8.25;;;10.90;99.90;;;;;;5054936;28;20052;-71
2022/06/01 05:41:43;;;;;;;8.75;7.93;;;10.80;99.90;;;;;;5054745;28;20045;-72
2022/06/01 05:44:09;;;;;;;11.52;10.25;;;11.00;99.90;;;;;;5054944;28;20120;-72
2022/06/01 05:46:35;;;;;;;13.18;9.30;;;11.00;99.90;;;;;;5054270;28;20049;-72
2022/06/01 05:49:04;;;;;;;10.10;9.10;;;11.00;99.90;;;;;;5071929;28;20095;-72
2022/06/01 05:51:29;;;;;;;9.82;8.82;;;11.10;99.90;;;;;;5074553;28;20072;-71
2022/06/01 05:53:55;;;;;;;11.35;10.15;;;11.10;99.90;;;;;;5074642;28;20095;-72
2022/06/01 05:56:21;;;;;;;8.70;7.80;;;11.20;99.90;;;;;;5074375;28;20048;-72
2022/06/01 05:58:48;;;;;;;9.70;8.80;;;11.30;99.90;;;;;;5023098;28;20140;-72
2022/06/01 06:01:16;;;;;;;9.93;8.98;;;11.40;99.90;;;;;;5073473;28;20097;-73
2022/06/01 06:03:42;;;;;;;10.10;9.10;;;11.40;99.90;;;;;;5074298;28;20045;-72
2022/06/01 06:06:17;;;;;;;10.07;8.45;;;11.40;99.90;;;;;;5074316;28;20105;-72
2022/06/01 06:08:48;;;;;;;10.93;9.80;;;11.50;99.90;;;;;;5074488;28;20040;-72
2022/06/01 06:11:16;;;;;;;11.32;8.68;;;11.60;99.90;;;;;;5074366;28;20048;-72
2022/06/01 06:13:42;;;;;;;9.57;8.05;;;11.50;99.90;;;;;;5074358;28;20084;-72
2022/06/01 06:16:08;;;;;;;8.82;7.93;;;11.60;99.90;;;;;;5072525;28;20126;-72
2022/06/01 06:18:35;;;;;;;10.48;7.65;;;11.70;99.90;;;;;;5074270;28;20044;-72
2022/06/01 06:21:01;;;;;;;8.88;7.28;;;11.80;99.90;;;;;;5074217;28;20044;-72
2022/06/01 06:23:27;;;;;;;12.32;7.90;;;11.80;99.90;;;;;;5074537;28;20086;-72
2022/06/01 06:25:52;;;;;;;9.65;7.22;;;11.90;99.90;;;;;;5073463;28;20399;-73
2022/06/01 06:28:19;;;;;;;7.38;6.68;;;11.90;99.90;;;;;;5074338;28;20098;-72
2022/06/01 06:30:45;;;;;;;9.10;7.57;;;11.90;99.90;;;;;;5074005;28;20044;-72
2022/06/01 06:33:11;;;;;;;8.93;6.82;;;11.90;99.90;;;;;;5074219;28;20048;-72
2022/06/01 06:35:37;;;;;;;10.27;7.68;;;12.00;99.90;;;;;;5074340;28;20122;-73
2022/06/01 06:38:04;;;;;;;10.63;6.97;;;12.00;99.90;;;;;;5074311;28;20055;-72
2022/06/01 06:40:30;;;;;;;10.13;7.13;;;12.00;99.90;;;;;;5071161;28;20047;-72
2022/06/01 06:42:56;;;;;;;9.82;6.82;;;12.00;99.90;;;;;;5073966;28;20052;-73
2022/06/01 06:45:22;;;;;;;12.13;6.82;;;12.10;99.90;;;;;;5074033;28;20087;-73
2022/06/01 06:47:48;;;;;;;8.50;6.43;;;12.00;99.90;;;;;;5073869;28;20048;-72
2022/06/01 06:50:17;;;;;;;11.07;7.00;;;12.00;99.90;;;;;;5074058;28;20370;-73
2022/06/01 06:52:42;;;;;;;6.68;6.00;;;12.10;99.90;;;;;;5074176;28;20458;-72
2022/06/01 06:55:09;;;;;;;10.70;6.88;;;12.20;99.90;;;;;;5074976;28;20152;-72
2022/06/01 06:57:35;;;;;;;7.80;6.20;;;12.30;99.90;;;;;;5078048;28;20045;-72
2022/06/01 07:00:03;;;;;;;7.57;6.43;;;12.50;99.90;;;;;;5077564;28;20056;-72
2022/06/01 07:02:29;;;;;;;10.15;5.22;;;12.60;99.90;;;;;;5077537;28;20051;-73
2022/06/01 07:04:56;;;;;;;8.32;6.10;;;12.70;99.90;;;;;;5077484;28;20040;-73
2022/06/01 07:07:22;;;;;;;9.60;5.60;;;12.80;99.90;;;;;;5072601;28;20041;-73
2022/06/01 07:09:47;;;;;;;8.23;5.70;;;13.00;99.90;;;;;;5057512;28;20053;-73
2022/06/01 07:12:13;;;;;;;6.70;5.90;;;13.00;99.90;;;;;;5057802;28;20139;-73
2022/06/01 07:14:40;;;;;;;11.43;6.55;;;13.20;99.90;;;;;;5057486;28;20033;-72
2022/06/01 07:17:06;;;;;;;7.35;6.00;;;13.20;99.90;;;;;;5057383;28;20041;-73
2022/06/01 07:19:31;;;;;;;9.18;6.05;;;13.30;99.90;;;;;;5057810;28;20051;-72
2022/06/01 07:21:57;;;;;;;7.63;6.25;;;13.40;99.90;;;;;;5059028;28;20053;-72
2022/06/01 07:24:23;;;;;;;6.70;6.00;;;13.40;99.90;;;;;;5077419;28;20044;-72
2022/06/01 07:26:49;;;;;;;11.48;6.43;;;13.50;99.90;;;;;;5077267;28;20059;-73
2022/06/01 07:29:18;;;;;;;7.18;6.28;;;13.50;99.90;;;;;;5077221;28;20044;-73
2022/06/01 07:31:44;;;;;;;7.45;6.30;;;13.60;99.90;;;;;;5077122;28;20080;-72
2022/06/01 07:34:10;;;;;;;8.00;6.25;;;13.60;99.90;;;;;;5076976;28;20087;-73
2022/06/01 07:36:36;;;;;;;7.47;5.70;;;13.50;99.90;;;;;;5075177;28;20080;-73
2022/06/01 07:44:49;;;;;;;4.60;4.07;;;14.10;99.90;;;;;;5005080;28;20468;-73
2022/06/01 07:47:15;;;;;;;4.55;4.10;;;14.20;99.90;;;;;;5076800;28;20047;-73
2022/06/01 07:49:41;;;;;;;4.80;4.30;;;14.20;99.90;;;;;;5076760;28;20127;-73
2022/06/01 07:52:11;;;;;;;5.95;4.28;;;14.10;99.90;;;;;;5075638;28;20112;-74
2022/06/01 07:54:39;;;;;;;5.90;4.25;;;14.00;99.90;;;;;;5076272;28;20390;-73
2022/06/01 07:57:05;;;;;;;4.38;3.83;;;14.10;99.90;;;;;;5076734;28;20078;-73
2022/06/01 07:59:31;;;;;;;3.97;3.40;;;14.10;99.90;;;;;;5077062;28;20102;-73
2022/06/01 08:01:56;;;;;;;6.05;3.63;;;14.10;99.90;;;;;;5076333;28;20474;-73
2022/06/01 08:04:22;;;;;;;5.55;3.97;;;14.20;99.90;;;;;;5076543;28;20036;-73
2022/06/01 08:06:48;;;;;;;5.32;3.65;;;14.10;99.90;;;;;;5072652;28;20044;-72
2022/06/01 08:09:13;;;;;;;4.43;3.50;;;14.10;99.90;;;;;;5076385;28;20119;-73
2022/06/01 08:14:23;;;;;;;4.85;3.30;;;14.20;99.90;;;;;;5076239;28;20057;-72
2022/06/01 08:16:49;;;;;;;3.40;2.70;;;14.30;99.90;;;;;;5076189;28;20128;-73
2022/06/01 08:19:16;;;;;;;2.97;2.20;;;14.30;99.90;;;;;;5071528;28;20044;-73
2022/06/01 08:21:42;;;;;;;3.92;3.42;;;14.30;99.90;;;;;;5040918;28;20053;-74
2022/06/01 08:24:08;;;;;;;4.35;2.75;;;14.20;99.90;;;;;;5036149;28;20110;-73
2022/06/01 08:26:35;;;;;;;5.22;2.90;;;14.00;99.90;;;;;;5019093;28;20052;-73
2022/06/01 08:29:02;;;;;;;5.18;2.70;;;14.00;99.90;;;;;;5036310;28;20052;-73
2022/06/01 08:31:30;;;;;;;2.40;2.20;;;14.00;99.90;;;;;;5018545;28;20056;-73
2022/06/01 08:33:56;;;;;;;3.38;3.03;;;13.90;99.90;;;;;;5050037;28;20450;-73
2022/06/01 08:36:22;;;;;;;2.38;2.17;;;13.80;99.90;;;;;;5055852;28;20051;-73
2022/06/01 08:38:49;;;;;;;3.13;2.65;;;13.70;99.90;;;;;;5055878;28;20146;-74
2022/06/01 08:41:17;;;;;;;7.55;3.80;;;13.70;99.90;;;;;;5055623;28;20049;-73
2022/06/01 08:43:50;;;;;;;3.78;2.85;;;13.80;99.90;;;;;;5055777;28;20037;-73
2022/06/01 08:46:18;;;;;;;4.25;3.17;;;14.00;99.90;;;;;;5057180;28;20112;-73
2022/06/01 08:48:56;;;;;;;4.20;3.13;;;14.10;99.90;;;;;;5075647;28;20123;-73
2022/06/01 08:51:26;;;;;;;4.28;3.10;;;14.30;99.90;;;;;;5075538;28;20044;-72
2022/06/01 08:53:52;;;;;;;4.72;2.72;;;14.50;99.90;;;;;;5075260;28;20056;-73
2022/06/01 08:56:26;;;;;;;3.92;3.28;;;14.60;99.90;;;;;;5075706;28;20052;-73
2022/06/01 08:59:03;;;;;;;3.63;2.97;;;14.80;99.90;;;;;;5075431;28;20040;-73
2022/06/01 09:01:41;;;;;;;4.25;3.53;;;14.80;99.90;;;;;;5067314;28;20052;-73
2022/06/01 09:04:37;;;;;;;4.25;3.85;;;15.00;99.90;;;;;;5055275;28;20033;-73
2022/06/01 09:07:29;;;;;;;4.22;3.72;;;14.90;99.90;;;;;;5055147;28;20055;-73
2022/06/01 09:10:16;;;;;;;4.57;3.70;;;15.10;99.90;;;;;;5055391;28;20120;-73
2022/06/01 09:12:43;;;;;;;4.30;3.90;;;15.00;99.90;;;;;;5055209;28;20439;-73
2022/06/01 09:15:17;;;;;;;4.35;3.90;;;14.90;99.90;;;;;;5055104;28;20048;-73
2022/06/01 09:17:43;;;;;;;4.57;3.85;;;14.80;99.90;;;;;;5054020;28;20424;-74
2022/06/01 09:22:55;;;;;;;4.75;3.72;;;14.60;99.90;;;;;;5055089;28;20111;-73
2022/06/01 09:25:29;;;;;;;5.80;3.75;;;14.50;99.90;;;;;;5054322;28;20059;-73
2022/06/01 09:27:59;;;;;;;4.60;4.20;;;14.30;99.90;;;;;;5054858;28;20040;-73
2022/06/01 09:30:38;;;;;;;5.38;3.88;;;14.40;99.90;;;;;;5054990;28;20056;-73
2022/06/01 09:33:11;;;;;;;5.45;3.97;;;14.50;99.90;;;;;;4984057;28;20072;-73
2022/06/01 09:35:53;;;;;;;5.15;3.88;;;14.70;99.90;;;;;;5017767;28;20056;-74
2022/06/01 09:38:36;;;;;;;5.40;3.60;;;14.90;99.90;;;;;;5017713;28;20443;-73
2022/06/01 09:41:36;;;;;;;3.30;2.97;;;15.20;99.90;;;;;;5034923;28;20422;-73
2022/06/01 09:44:05;;;;;;;4.50;3.60;;;15.30;99.90;;;;;;5032419;28;20049;-74
2022/06/01 09:46:35;;;;;;;3.33;2.95;;;15.50;99.90;;;;;;5037764;28;20045;-74
2022/06/01 09:49:42;;;;;;;5.80;3.53;;;15.60;99.90;;;;;;5074542;28;20135;-73
2022/06/01 09:52:15;;;;;;;5.00;3.47;;;15.40;99.90;;;;;;4974012;28;20432;-74
2022/06/01 09:54:44;;;;;;;3.55;3.13;;;15.30;99.90;;;;;;4973794;28;20176;-73
2022/06/01 09:57:24;;;;;;;6.05;3.08;;;15.00;99.90;;;;;;5029587;28;20053;-74
2022/06/01 10:08:30;;;;;;;3.75;3.10;;;14.70;99.90;;;;;;5034916;28;20061;-74
2022/06/01 10:11:05;;;;;;;5.88;4.20;;;14.70;99.90;;;;;;5044776;28;20055;-73
2022/06/01 10:13:33;;;;;;;5.50;3.78;;;14.60;99.90;;;;;;5074464;28;20041;-72
2022/06/01 10:16:37;;;;;;;4.22;3.67;;;14.40;99.90;;;;;;5070533;28;20041;-73
2022/06/01 10:19:07;;;;;;;4.38;3.20;;;14.50;99.90;;;;;;5054210;28;20049;-72
2022/06/01 10:21:47;;;;;;;5.45;4.80;;;14.50;99.90;;;;;;5054741;28;20421;-72
2022/06/01 10:24:20;;;;;;;5.97;5.38;;;14.50;99.90;;;;;;5052254;28;20052;-72
2022/06/01 10:26:58;;;;;;;5.47;4.97;;;14.50;99.90;;;;;;5034527;28;20060;-73
2022/06/01 10:29:48;;;;;;;7.38;5.78;;;14.60;99.90;;;;;;5035237;28;20053;-73
2022/06/01 10:32:26;;;;;;;5.97;5.45;;;14.70;99.90;;;;;;5038266;28;20041;-73
2022/06/01 10:35:04;;;;;;;8.82;5.60;;;14.70;99.90;;;;;;5038278;28;20075;-73
2022/06/01 10:37:35;;;;;;;7.70;6.40;;;14.70;99.90;;;;;;5038159;28;20091;-72
2022/06/01 10:40:11;;;;;;;5.60;5.10;;;14.60;99.90;;;;;;5057931;28;20063;-73
2022/06/01 10:45:45;;;;;;;7.15;5.57;;;14.50;99.90;;;;;;5077643;28;20127;-72
2022/06/01 10:48:15;;;;;;;5.95;5.35;;;14.60;99.90;;;;;;5068343;28;20041;-73
2022/06/01 10:50:50;;;;;;;5.90;5.15;;;14.70;99.90;;;;;;5057911;28;20045;-72
2022/06/01 10:53:41;;;;;;;6.63;5.28;;;14.70;99.90;;;;;;5057837;28;20052;-73
2022/06/01 10:56:07;;;;;;;5.85;5.18;;;14.80;99.90;;;;;;5043473;28;20132;-73
2022/06/01 10:58:35;;;;;;;6.38;4.53;;;14.70;99.90;;;;;;5057931;28;20116;-73
2022/06/01 11:01:37;;;;;;;6.03;5.05;;;14.70;99.90;;;;;;5056851;28;20049;-73
2022/06/01 11:04:30;;;;;;;5.65;5.05;;;14.60;99.90;;;;;;5057608;28;20095;-73
2022/06/01 11:07:17;;;;;;;5.53;4.70;;;14.50;99.90;;;;;;5057533;28;20106;-72
2022/06/01 11:09:45;;;;;;;7.68;5.18;;;14.50;99.90;;;;;;5057571;28;20045;-73
2022/06/01 11:12:24;;;;;;;6.32;5.30;;;14.40;99.90;;;;;;5057744;28;20041;-73
2022/06/01 11:15:09;;;;;;;6.32;5.35;;;14.40;99.90;;;;;;5057458;28;20619;-73
2022/06/01 11:17:47;;;;;;;6.13;5.53;;;14.30;99.90;;;;;;5056627;28;20119;-74
2022/06/01 11:20:34;;;;;;;6.45;4.93;;;14.30;99.90;;;;;;5057452;28;20069;-73
2022/06/01 11:23:28;;;;;;;7.20;5.70;;;14.20;99.90;;;;;;5056987;28;20119;-73
2022/06/01 11:26:29;;;;;;;9.82;6.45;;;14.20;99.90;;;;;;5057402;28;20102;-73
2022/06/01 11:29:11;;;;;;;7.57;6.88;;;14.10;99.90;;;;;;5057479;28;20060;-74
2022/06/01 11:31:39;;;;;;;7.30;6.60;;;13.90;99.90;;;;;;5065047;28;20405;-73
2022/06/01 11:34:12;;;;;;;7.53;6.50;;;13.80;99.90;;;;;;5061790;28;20041;-73
2022/06/01 11:36:56;;;;;;;6.90;6.20;;;13.90;99.90;;;;;;5057003;28;20056;-73
2022/06/01 11:39:47;;;;;;;10.47;7.03;;;14.00;99.90;;;;;;5057418;28;20061;-73
2022/06/01 11:42:35;;;;;;;8.82;7.43;;;14.00;99.90;;;;;;5056830;28;20410;-73
2022/06/01 11:45:13;;;;;;;12.95;9.98;;;14.30;99.90;;;;;;5057008;28;20041;-72
2022/06/01 11:47:46;;;;;;;10.38;7.57;;;14.30;99.90;;;;;;5037093;28;20344;-73
2022/06/01 11:51:06;;;;;;;9.02;6.65;;;14.50;99.90;;;;;;5036691;28;20045;-74
2022/06/01 11:53:46;;;;;;;7.70;6.82;;;15.20;99.90;;;;;;4995117;28;20496;-74
2022/06/01 11:56:22;;;;;;;6.40;5.50;;;16.20;99.90;;;;;;5032355;28;20041;-74
2022/06/01 11:59:18;;;;;;;6.90;5.55;;;16.10;99.90;;;;;;5037153;28;20144;-74
2022/06/01 12:02:17;;;;;;;6.32;5.53;;;16.00;99.90;;;;;;5051575;28;20056;-74
2022/06/01 12:04:55;;;;;;;5.85;5.00;;;16.20;99.90;;;;;;5056302;28;20382;-74
2022/06/01 12:07:34;;;;;;;6.10;4.45;;;16.30;99.90;;;;;;5056562;28;20340;-74
2022/06/01 12:10:24;;;;;;;5.30;4.40;;;16.40;99.90;;;;;;5056464;28;20049;-74
2022/06/01 12:13:00;;;;;;;5.57;4.18;;;16.50;99.90;;;;;;5039050;28;20469;-74
2022/06/01 12:15:32;;;;;;;5.70;3.78;;;17.10;99.90;;;;;;5062649;28;20136;-74
2022/06/01 12:18:14;;;;;;;4.78;3.72;;;17.60;99.90;;;;;;5076282;28;20041;-74
2022/06/01 12:20:40;;;;;;;5.30;4.63;;;17.80;99.90;;;;;;5058646;28;20147;-71
2022/06/01 12:28:49;;;;;;;6.93;4.70;;;17.60;99.90;;;;;;5072191;28;20101;-74
2022/06/01 12:31:59;;;;;;;6.13;4.47;;;18.10;99.90;;;;;;5076022;28;20044;-74
2022/06/01 12:34:32;;;;;;;5.63;5.13;;;18.10;99.90;;;;;;5070829;28;20078;-74
2022/06/01 12:37:08;;;;;;;5.47;4.57;;;17.60;99.90;;;;;;5075808;28;20123;-74
2022/06/01 12:39:40;;;;;;;5.65;4.47;;;17.40;99.90;;;;;;5075992;28;20076;-74
2022/06/01 12:42:27;;;;;;;5.60;5.05;;;17.10;99.90;;;;;;5069915;28;20052;-74
2022/06/01 12:44:55;;;;;;;7.15;4.78;;;17.00;99.90;;;;;;5055824;28;20036;-74
2022/06/01 12:47:35;;;;;;;7.30;4.45;;;16.90;99.90;;;;;;5055977;28;20053;-74
2022/06/01 12:50:13;;;;;;;4.53;4.13;;;16.80;99.90;;;;;;5055830;28;20053;-74
2022/06/01 12:52:39;;;;;;;4.70;4.20;;;16.60;99.90;;;;;;5054856;28;20063;-73
2022/06/01 12:55:08;;;;;;;5.38;4.88;;;16.50;99.90;;;;;;5054490;28;20458;-74
2022/06/01 12:57:42;;;;;;;6.05;4.88;;;16.20;99.90;;;;;;5055432;28;20045;-74
2022/06/01 13:00:19;;;;;;;6.00;4.90;;;16.10;99.90;;;;;;5055343;28;20059;-73
2022/06/01 13:02:45;;;;;;;5.82;5.22;;;16.00;99.90;;;;;;5035459;28;20164;-74
2022/06/01 13:05:17;;;;;;;5.90;4.53;;;16.00;99.90;;;;;;5035494;28;20434;-73
2022/06/01 13:07:48;;;;;;;5.57;4.47;;;16.00;99.90;;;;;;5035425;28;20160;-74
2022/06/01 13:10:23;;;;;;;6.90;4.22;;;16.20;99.90;;;;;;5035371;28;20049;-74
2022/06/01 13:12:49;;;;;;;7.32;4.00;;;16.30;99.90;;;;;;5042096;28;20425;-74
2022/06/01 13:15:26;;;;;;;5.25;4.40;;;16.30;99.90;;;;;;5055486;28;20041;-73
2022/06/01 13:17:53;;;;;;;7.63;5.55;;;16.30;99.90;;;;;;5054872;28;20041;-74
2022/06/01 13:20:33;;;;;;;5.22;4.70;;;16.20;99.90;;;;;;5055250;28;20049;-74
2022/06/01 13:23:01;;;;;;;6.15;4.03;;;16.20;99.90;;;;;;5055107;28;20087;-74
2022/06/01 13:25:34;;;;;;;4.68;4.20;;;16.60;99.90;;;;;;5054138;28;20432;-74
2022/06/01 13:28:00;;;;;;;3.95;2.55;;;17.30;99.90;;;;;;5062898;28;20070;-74
2022/06/01 13:30:29;;;;;;;2.28;2.08;;;17.00;99.90;;;;;;5048796;28;20056;-74
2022/06/01 13:32:57;;;;;;;2.78;2.40;;;16.60;99.90;;;;;;5034910;28;20103;-74
2022/06/01 13:35:37;;;;;;;4.05;3.00;;;16.30;99.90;;;;;;5035377;28;20355;-74